Ocean Beach, CA

7:18 PM PDT on September 22, 2014 (GMT -0700)
Ocean Beach | Change Station
CLOSE
Current Station
Personal Weather Station
Location: San Diego, CA
Elevation: 219 ft
Nearby Weather Stations

Elev 219 ft 32.74 °N, 117.24 °W | Updated 19 minutes ago

Clear
Clear
68.9 °F
Feels Like 68.9 °F
N
2.0
Wind Variable Wind from NW
Gusts 9.0 mph

Today
High -- | Low -- °F
--% Chance of Precip.
Yesterday
High -- | Low -- °F
Precip. -- in
6:37 AM 6:45 PM
Waning Crescent, 1% visible
Pressure 29.92 in
Visibility 10.0 miles
Clouds Few 1500 ft
Dew Point 65 °F
Humidity 87%
Rainfall 0.00 in
Snow Depth 0 in , 0 in , 0 in
UV 0 out of 12
Pollen 5.60 out of 12
Ozone Good
PM2.5 Good
Flu Activity Not available.
METAR KSAN 230151Z 31007KT 10SM FEW015 22/17 A2992 RMK AO2 SLP130 T02220172

More Conditions Fewer Conditions

Pressure 29.92 in
Visibility 10.0 miles
Clouds Few 1500 ft
Dew Point 65 °F
Humidity 87%
Rainfall 0.00 in
Snow Depth 0 in , 0 in , 0 in
UV 0 out of 12
Pollen 5.60 out of 12
Ozone Good
PM2.5 Good
Flu Activity Not available.
METAR KSAN 230151Z 31007KT 10SM FEW015 22/17 A2992 RMK AO2 SLP130 T02220172

More Conditions Fewer Conditions

10-Day Weather Forecast

Almanac

Astronomy

Sep. 22, 2014 Rise Set
Actual Time 6:37 AM PDT 6:45 PM PDT
Civil Twilight 6:12 AM PDT 7:10 PM PDT
Nautical Twilight 5:43 AM PDT 7:38 PM PDT
Astronomical Twilight 5:14 AM PDT 8:07 PM PDT
Moon 5:13 AM PDT (9/22) 5:53 PM PDT (9/22)
Length of Visible Light 12h 57m
Length of Day
12h 08m
Tomorrow will be 2m 0s shorter.
Waning Crescent, 1% of the Moon is Illuminated
Today
Waning Crescent
Sep 24
New
Oct 1
First Quarter
Oct 8
Full
Oct 15
Last Quarter

Today's Extremes

State Highs State Lows

Community

WunderPhotos

Upload Photos

1,755,587 photos uploaded!

Nearby

Air Quality

  Air Quality AQ Index Pollutant
Yesterday Good
OZONE
Yesterday Good
PM2.5
Current Good
OZONE
Current Good
PM2.5
Monday Moderate
PM2.5
Monday Good
OZONE
Tuesday Good
PM2.5
Tuesday Good
OZONE

Snow Depth

Station Depth Elevation
CSS Lab 0 in 6900 ft
Summit Meadow 0 in 9122 ft
Leavitt Meadows 0 in 7200 ft
Adin Mountain 0 in 6200 ft

Earthquake Activity

City Distance Mag. Time & Date
Big Bear Lake, California 107 miles 2.5 7:26 AM PDT
2014-09-22
Borrego Springs, California 55 miles 2.6 7:34 AM PDT
2014-09-21
Minimum magnitude displayed is 2.5.

Coastal Water Temperatures

Place Temperature
La Jolla, CA 71.1 °F
San Diego, CA 75.9 °F

Nearby Weather Stations